UUDD 171700Z 03004MPS 360V080 9000 -SHRA BKN029CB 09/06 Q1005 R32L/190050 NOSIG
QNH:(hPa/inHg/mmHg)1005 / 29.68 / 754
QFE:(hPa/inHg/mmHg)983 / 29.03 / 737
Temperature9
Dew Point6
Visibility9000
WeatherLight Showers Rain
Cloud CoverBKN (2900);
Transition Altitude10000 ft.
Transition LevelFL120
SQUAWK